Other Surface Observations
Issued by NWS Missoula, MT

Home | Current Version | Previous Version | Text Only | Print | Product List | Glossary On
Versions: 1 2 3 4 5 6 7 8 9 10 11 12 13 14 15 16 17 18 19 20 21 22 23 24 25 26 27 28 29 30 31 32 33 34 35 36 37 38 39 40 41 42 43 44 45 46 47 48 49 50
000
SXUS55 KMSO 260043
OSOMSO
MONTANA AWOS SUMMARY
NATIONAL WEATHER SERVICE MISSOULA MT
643 PM MDT MON JUL 25 2016

Montana AWOS Reports

LAUREL      |K6S8 260035Z AUTO 02009KT 40SM 34/06 A2995 RMK AO1 T03440061
TWIN BRIDGES|K7S1 260035Z AUTO 33010KT 40SM 31/03 A3005 RMK AO1 T03060028
ROUNDUP     |KRPX 260035Z AUTO 01011KT 40SM 32/08 A2992 RMK AO1 T03170078




USA.gov is the U.S. government's official web portal to all federal, state and local government web resources and services.